sensor_id;sensor_type;location;lat;lon;timestamp;temperature;humidity
17346;DHT22;8790;53.590;10.002;2022-12-07T00:01:58;4.40;99.90
17346;DHT22;8790;53.590;10.002;2022-12-07T00:04:31;4.40;99.90
17346;DHT22;8790;53.590;10.002;2022-12-07T00:07:03;4.40;99.90
17346;DHT22;8790;53.590;10.002;2022-12-07T00:09:34;4.40;99.90
17346;DHT22;8790;53.590;10.002;2022-12-07T00:12:06;4.50;99.90
17346;DHT22;8790;53.590;10.002;2022-12-07T00:14:38;4.50;99.90
17346;DHT22;8790;53.590;10.002;2022-12-07T00:17:10;4.50;99.90
17346;DHT22;8790;53.590;10.002;2022-12-07T00:19:43;4.50;99.90
17346;DHT22;8790;53.590;10.002;2022-12-07T00:22:14;4.50;99.90
17346;DHT22;8790;53.590;10.002;2022-12-07T00:24:46;4.50;99.90
17346;DHT22;8790;53.590;10.002;2022-12-07T00:27:18;4.40;99.90
17346;DHT22;8790;53.590;10.002;2022-12-07T00:29:49;4.50;99.90
17346;DHT22;8790;53.590;10.002;2022-12-07T00:32:21;4.50;99.90
17346;DHT22;8790;53.590;10.002;2022-12-07T00:34:54;4.50;99.90
17346;DHT22;8790;53.590;10.002;2022-12-07T00:37:26;4.50;99.90
17346;DHT22;8790;53.590;10.002;2022-12-07T00:39:57;4.50;99.90
17346;DHT22;8790;53.590;10.002;2022-12-07T00:42:29;4.50;99.90
17346;DHT22;8790;53.590;10.002;2022-12-07T00:45:01;4.60;99.90
17346;DHT22;8790;53.590;10.002;2022-12-07T00:47:33;4.50;99.90
17346;DHT22;8790;53.590;10.002;2022-12-07T00:50:07;4.60;99.90
17346;DHT22;8790;53.590;10.002;2022-12-07T00:52:38;4.60;99.90
17346;DHT22;8790;53.590;10.002;2022-12-07T00:55:10;4.60;99.90
17346;DHT22;8790;53.590;10.002;2022-12-07T00:57:42;4.60;99.90
17346;DHT22;8790;53.590;10.002;2022-12-07T01:00:14;4.60;99.90
17346;DHT22;8790;53.590;10.002;2022-12-07T01:02:46;4.60;99.90
17346;DHT22;8790;53.590;10.002;2022-12-07T01:05:19;4.60;99.90
17346;DHT22;8790;53.590;10.002;2022-12-07T01:07:51;4.60;99.90
17346;DHT22;8790;53.590;10.002;2022-12-07T01:10:23;4.60;99.90
17346;DHT22;8790;53.590;10.002;2022-12-07T01:12:55;4.70;99.90
17346;DHT22;8790;53.590;10.002;2022-12-07T01:15:26;4.70;99.90
17346;DHT22;8790;53.590;10.002;2022-12-07T01:17:58;4.70;99.90
17346;DHT22;8790;53.590;10.002;2022-12-07T01:20:31;4.60;99.90
17346;DHT22;8790;53.590;10.002;2022-12-07T01:23:03;4.60;99.90
17346;DHT22;8790;53.590;10.002;2022-12-07T01:25:35;4.60;99.90
17346;DHT22;8790;53.590;10.002;2022-12-07T01:28:06;4.60;99.90
17346;DHT22;8790;53.590;10.002;2022-12-07T01:30:38;4.60;99.90
17346;DHT22;8790;53.590;10.002;2022-12-07T01:33:10;4.60;99.90
17346;DHT22;8790;53.590;10.002;2022-12-07T01:35:43;4.60;99.90
17346;DHT22;8790;53.590;10.002;2022-12-07T01:38:14;4.60;99.90
17346;DHT22;8790;53.590;10.002;2022-12-07T01:40:53;4.60;99.90
17346;DHT22;8790;53.590;10.002;2022-12-07T01:43:27;4.60;99.90
17346;DHT22;8790;53.590;10.002;2022-12-07T01:46:00;4.60;99.90
17346;DHT22;8790;53.590;10.002;2022-12-07T01:48:34;4.60;99.90
17346;DHT22;8790;53.590;10.002;2022-12-07T01:51:09;4.60;99.90
17346;DHT22;8790;53.590;10.002;2022-12-07T01:53:43;4.60;99.90
17346;DHT22;8790;53.590;10.002;2022-12-07T01:56:20;4.60;99.90
17346;DHT22;8790;53.590;10.002;2022-12-07T01:58:54;4.60;99.90
17346;DHT22;8790;53.590;10.002;2022-12-07T02:01:27;4.60;99.90
17346;DHT22;8790;53.590;10.002;2022-12-07T02:03:59;4.60;99.90
17346;DHT22;8790;53.590;10.002;2022-12-07T02:06:33;4.60;99.90
17346;DHT22;8790;53.590;10.002;2022-12-07T02:09:07;4.60;99.90
17346;DHT22;8790;53.590;10.002;2022-12-07T02:11:39;4.60;99.90
17346;DHT22;8790;53.590;10.002;2022-12-07T02:14:11;4.60;99.90
17346;DHT22;8790;53.590;10.002;2022-12-07T02:16:51;4.60;99.90
17346;DHT22;8790;53.590;10.002;2022-12-07T02:19:46;4.60;99.90
17346;DHT22;8790;53.590;10.002;2022-12-07T02:25:35;4.60;99.90
17346;DHT22;8790;53.590;10.002;2022-12-07T02:28:14;4.50;99.90
17346;DHT22;8790;53.590;10.002;2022-12-07T02:30:52;4.50;99.90
17346;DHT22;8790;53.590;10.002;2022-12-07T02:33:28;4.50;99.90
17346;DHT22;8790;53.590;10.002;2022-12-07T02:36:06;4.50;99.90
17346;DHT22;8790;53.590;10.002;2022-12-07T02:38:44;4.50;99.90
17346;DHT22;8790;53.590;10.002;2022-12-07T02:41:22;4.50;99.90
17346;DHT22;8790;53.590;10.002;2022-12-07T02:43:58;4.50;99.90
17346;DHT22;8790;53.590;10.002;2022-12-07T02:46:36;4.50;99.90
17346;DHT22;8790;53.590;10.002;2022-12-07T02:49:10;4.50;99.90
17346;DHT22;8790;53.590;10.002;2022-12-07T02:51:44;4.50;99.90
17346;DHT22;8790;53.590;10.002;2022-12-07T02:54:18;4.50;99.90
17346;DHT22;8790;53.590;10.002;2022-12-07T02:56:53;4.50;99.90
17346;DHT22;8790;53.590;10.002;2022-12-07T02:59:36;4.50;99.90
17346;DHT22;8790;53.590;10.002;2022-12-07T03:02:18;4.50;99.90
17346;DHT22;8790;53.590;10.002;2022-12-07T03:05:03;4.50;99.90
17346;DHT22;8790;53.590;10.002;2022-12-07T03:07:45;4.50;99.90
17346;DHT22;8790;53.590;10.002;2022-12-07T03:10:27;4.40;99.90
17346;DHT22;8790;53.590;10.002;2022-12-07T03:13:07;4.30;99.90
17346;DHT22;8790;53.590;10.002;2022-12-07T03:15:46;4.30;99.90
17346;DHT22;8790;53.590;10.002;2022-12-07T03:18:23;4.30;99.90
17346;DHT22;8790;53.590;10.002;2022-12-07T03:20:59;4.30;99.90
17346;DHT22;8790;53.590;10.002;2022-12-07T03:23:33;4.30;99.90
17346;DHT22;8790;53.590;10.002;2022-12-07T03:26:09;4.30;99.90
17346;DHT22;8790;53.590;10.002;2022-12-07T03:28:54;4.30;99.90
17346;DHT22;8790;53.590;10.002;2022-12-07T03:31:29;4.30;99.90
17346;DHT22;8790;53.590;10.002;2022-12-07T03:34:07;4.30;99.90
17346;DHT22;8790;53.590;10.002;2022-12-07T03:36:44;4.20;99.90
17346;DHT22;8790;53.590;10.002;2022-12-07T03:39:24;4.30;99.90
17346;DHT22;8790;53.590;10.002;2022-12-07T03:41:57;4.20;99.90
17346;DHT22;8790;53.590;10.002;2022-12-07T03:44:30;4.20;99.90
17346;DHT22;8790;53.590;10.002;2022-12-07T03:47:04;4.20;99.90
17346;DHT22;8790;53.590;10.002;2022-12-07T03:49:42;4.10;99.90
17346;DHT22;8790;53.590;10.002;2022-12-07T03:52:20;4.10;99.90
17346;DHT22;8790;53.590;10.002;2022-12-07T03:54:57;4.10;99.90
17346;DHT22;8790;53.590;10.002;2022-12-07T03:57:33;4.10;99.90
17346;DHT22;8790;53.590;10.002;2022-12-07T04:00:07;4.20;99.90
17346;DHT22;8790;53.590;10.002;2022-12-07T04:02:45;4.20;99.90
17346;DHT22;8790;53.590;10.002;2022-12-07T04:05:19;4.20;99.90
17346;DHT22;8790;53.590;10.002;2022-12-07T04:07:51;4.20;99.90
17346;DHT22;8790;53.590;10.002;2022-12-07T04:10:23;4.10;99.90
17346;DHT22;8790;53.590;10.002;2022-12-07T04:12:55;4.10;99.90
17346;DHT22;8790;53.590;10.002;2022-12-07T04:15:27;4.10;99.90
17346;DHT22;8790;53.590;10.002;2022-12-07T04:17:58;4.10;99.90
17346;DHT22;8790;53.590;10.002;2022-12-07T04:20:31;4.00;99.90
17346;DHT22;8790;53.590;10.002;2022-12-07T04:23:03;4.00;99.90
17346;DHT22;8790;53.590;10.002;2022-12-07T04:25:35;4.00;99.90
17346;DHT22;8790;53.590;10.002;2022-12-07T04:28:06;4.00;99.90
17346;DHT22;8790;53.590;10.002;2022-12-07T04:30:38;4.00;99.90
17346;DHT22;8790;53.590;10.002;2022-12-07T04:33:10;4.00;99.90
17346;DHT22;8790;53.590;10.002;2022-12-07T04:35:43;4.00;99.90
17346;DHT22;8790;53.590;10.002;2022-12-07T04:38:15;4.00;99.90
17346;DHT22;8790;53.590;10.002;2022-12-07T04:40:47;4.00;99.90
17346;DHT22;8790;53.590;10.002;2022-12-07T04:43:18;4.00;99.90
17346;DHT22;8790;53.590;10.002;2022-12-07T04:45:50;3.90;99.90
17346;DHT22;8790;53.590;10.002;2022-12-07T04:48:22;3.90;99.90
17346;DHT22;8790;53.590;10.002;2022-12-07T04:50:55;4.00;99.90
17346;DHT22;8790;53.590;10.002;2022-12-07T04:53:27;3.90;99.90
17346;DHT22;8790;53.590;10.002;2022-12-07T04:55:58;3.90;99.90
17346;DHT22;8790;53.590;10.002;2022-12-07T04:58:31;3.90;99.90
17346;DHT22;8790;53.590;10.002;2022-12-07T05:01:03;3.90;99.90
17346;DHT22;8790;53.590;10.002;2022-12-07T05:03:35;3.90;99.90
17346;DHT22;8790;53.590;10.002;2022-12-07T05:06:10;3.90;99.90
17346;DHT22;8790;53.590;10.002;2022-12-07T05:08:42;3.90;99.90
17346;DHT22;8790;53.590;10.002;2022-12-07T05:11:14;3.80;99.90
17346;DHT22;8790;53.590;10.002;2022-12-07T05:14:01;3.80;99.90
17346;DHT22;8790;53.590;10.002;2022-12-07T05:16:32;3.80;99.90
17346;DHT22;8790;53.590;10.002;2022-12-07T05:19:04;3.80;99.90
17346;DHT22;8790;53.590;10.002;2022-12-07T05:21:38;3.80;99.90
17346;DHT22;8790;53.590;10.002;2022-12-07T05:24:12;3.80;99.90
17346;DHT22;8790;53.590;10.002;2022-12-07T05:26:44;3.80;99.90
17346;DHT22;8790;53.590;10.002;2022-12-07T05:29:17;3.90;99.90
17346;DHT22;8790;53.590;10.002;2022-12-07T05:31:48;3.80;99.90
17346;DHT22;8790;53.590;10.002;2022-12-07T05:34:20;3.80;99.90
17346;DHT22;8790;53.590;10.002;2022-12-07T05:36:53;3.80;99.90
17346;DHT22;8790;53.590;10.002;2022-12-07T05:39:25;3.80;99.90
17346;DHT22;8790;53.590;10.002;2022-12-07T05:41:57;3.80;99.90
17346;DHT22;8790;53.590;10.002;2022-12-07T05:44:45;3.80;99.90
17346;DHT22;8790;53.590;10.002;2022-12-07T05:47:17;3.80;99.90
17346;DHT22;8790;53.590;10.002;2022-12-07T05:49:48;3.80;99.90
17346;DHT22;8790;53.590;10.002;2022-12-07T05:54:57;3.70;99.90
17346;DHT22;8790;53.590;10.002;2022-12-07T05:57:29;3.80;99.90
17346;DHT22;8790;53.590;10.002;2022-12-07T06:00:02;3.80;99.90
17346;DHT22;8790;53.590;10.002;2022-12-07T06:02:42;3.80;99.90
17346;DHT22;8790;53.590;10.002;2022-12-07T06:05:14;3.70;99.90
17346;DHT22;8790;53.590;10.002;2022-12-07T06:07:46;3.70;99.90
17346;DHT22;8790;53.590;10.002;2022-12-07T06:10:19;3.70;99.90
17346;DHT22;8790;53.590;10.002;2022-12-07T06:12:51;3.70;99.90
17346;DHT22;8790;53.590;10.002;2022-12-07T06:15:21;3.60;99.90
17346;DHT22;8790;53.590;10.002;2022-12-07T06:17:53;3.60;99.90
17346;DHT22;8790;53.590;10.002;2022-12-07T06:20:25;3.60;99.90
17346;DHT22;8790;53.590;10.002;2022-12-07T06:22:57;3.60;99.90
17346;DHT22;8790;53.590;10.002;2022-12-07T06:25:30;3.60;99.90
17346;DHT22;8790;53.590;10.002;2022-12-07T06:28:01;3.60;99.90
17346;DHT22;8790;53.590;10.002;2022-12-07T06:30:33;3.60;99.90
17346;DHT22;8790;53.590;10.002;2022-12-07T06:33:05;3.60;99.90
17346;DHT22;8790;53.590;10.002;2022-12-07T06:35:36;3.60;99.90
17346;DHT22;8790;53.590;10.002;2022-12-07T06:38:08;3.70;99.90
17346;DHT22;8790;53.590;10.002;2022-12-07T06:40:41;3.70;99.90
17346;DHT22;8790;53.590;10.002;2022-12-07T06:43:13;3.70;99.90
17346;DHT22;8790;53.590;10.002;2022-12-07T06:45:45;3.70;99.90
17346;DHT22;8790;53.590;10.002;2022-12-07T06:48:16;3.70;99.90
17346;DHT22;8790;53.590;10.002;2022-12-07T06:50:48;3.70;99.90
17346;DHT22;8790;53.590;10.002;2022-12-07T06:53:20;3.70;99.90
17346;DHT22;8790;53.590;10.002;2022-12-07T06:55:53;3.80;99.90
17346;DHT22;8790;53.590;10.002;2022-12-07T06:58:25;3.80;99.90
17346;DHT22;8790;53.590;10.002;2022-12-07T07:00:57;3.80;99.90
17346;DHT22;8790;53.590;10.002;2022-12-07T07:03:28;3.80;99.90
17346;DHT22;8790;53.590;10.002;2022-12-07T07:06:00;3.80;99.90
17346;DHT22;8790;53.590;10.002;2022-12-07T07:08:32;3.80;99.90
17346;DHT22;8790;53.590;10.002;2022-12-07T07:11:06;3.80;99.90
17346;DHT22;8790;53.590;10.002;2022-12-07T07:13:38;3.80;99.90
17346;DHT22;8790;53.590;10.002;2022-12-07T07:16:10;3.80;99.90
17346;DHT22;8790;53.590;10.002;2022-12-07T07:18:42;3.80;99.90
17346;DHT22;8790;53.590;10.002;2022-12-07T07:21:14;3.80;99.90
17346;DHT22;8790;53.590;10.002;2022-12-07T07:23:45;3.80;99.90
17346;DHT22;8790;53.590;10.002;2022-12-07T07:26:18;3.80;99.90
17346;DHT22;8790;53.590;10.002;2022-12-07T07:28:50;3.80;99.90
17346;DHT22;8790;53.590;10.002;2022-12-07T07:31:22;3.80;99.90
17346;DHT22;8790;53.590;10.002;2022-12-07T07:33:54;3.80;99.90
17346;DHT22;8790;53.590;10.002;2022-12-07T07:36:25;3.80;99.90
17346;DHT22;8790;53.590;10.002;2022-12-07T07:38:57;3.80;99.90
17346;DHT22;8790;53.590;10.002;2022-12-07T07:41:30;3.90;99.90
17346;DHT22;8790;53.590;10.002;2022-12-07T07:44:02;3.80;99.90
17346;DHT22;8790;53.590;10.002;2022-12-07T07:46:33;3.90;99.90
17346;DHT22;8790;53.590;10.002;2022-12-07T07:49:05;3.90;99.90
17346;DHT22;8790;53.590;10.002;2022-12-07T07:51:37;3.90;99.90
17346;DHT22;8790;53.590;10.002;2022-12-07T07:54:09;3.90;99.90
17346;DHT22;8790;53.590;10.002;2022-12-07T07:56:42;3.90;99.90
17346;DHT22;8790;53.590;10.002;2022-12-07T07:59:14;3.90;99.90
17346;DHT22;8790;53.590;10.002;2022-12-07T08:01:46;3.90;99.90
17346;DHT22;8790;53.590;10.002;2022-12-07T08:04:18;4.00;99.90
17346;DHT22;8790;53.590;10.002;2022-12-07T08:06:49;4.00;99.90
17346;DHT22;8790;53.590;10.002;2022-12-07T08:09:21;4.00;99.90
17346;DHT22;8790;53.590;10.002;2022-12-07T08:11:54;4.00;99.90
17346;DHT22;8790;53.590;10.002;2022-12-07T08:14:26;4.00;99.90
17346;DHT22;8790;53.590;10.002;2022-12-07T08:16:59;4.00;99.90
17346;DHT22;8790;53.590;10.002;2022-12-07T08:19:31;4.00;99.90
17346;DHT22;8790;53.590;10.002;2022-12-07T08:22:03;4.10;99.90
17346;DHT22;8790;53.590;10.002;2022-12-07T08:24:36;4.10;99.90
17346;DHT22;8790;53.590;10.002;2022-12-07T08:27:09;4.10;99.90
17346;DHT22;8790;53.590;10.002;2022-12-07T08:29:41;4.10;99.90
17346;DHT22;8790;53.590;10.002;2022-12-07T08:32:12;4.10;99.90
17346;DHT22;8790;53.590;10.002;2022-12-07T08:34:44;4.10;99.90
17346;DHT22;8790;53.590;10.002;2022-12-07T08:37:16;4.10;99.90
17346;DHT22;8790;53.590;10.002;2022-12-07T08:39:47;4.20;99.90
17346;DHT22;8790;53.590;10.002;2022-12-07T08:42:20;4.20;99.90
17346;DHT22;8790;53.590;10.002;2022-12-07T08:44:57;4.20;99.90
17346;DHT22;8790;53.590;10.002;2022-12-07T08:47:29;4.20;99.90
17346;DHT22;8790;53.590;10.002;2022-12-07T08:50:02;4.20;99.90
17346;DHT22;8790;53.590;10.002;2022-12-07T08:52:36;4.30;99.90
17346;DHT22;8790;53.590;10.002;2022-12-07T08:55:09;4.30;99.90
17346;DHT22;8790;53.590;10.002;2022-12-07T08:57:43;4.30;99.90
17346;DHT22;8790;53.590;10.002;2022-12-07T09:00:16;4.30;99.90
17346;DHT22;8790;53.590;10.002;2022-12-07T09:02:48;4.30;99.90
17346;DHT22;8790;53.590;10.002;2022-12-07T09:05:20;4.30;99.90
17346;DHT22;8790;53.590;10.002;2022-12-07T09:07:56;4.30;99.90
17346;DHT22;8790;53.590;10.002;2022-12-07T09:10:29;4.40;99.90
17346;DHT22;8790;53.590;10.002;2022-12-07T09:13:02;4.40;99.90
17346;DHT22;8790;53.590;10.002;2022-12-07T09:15:34;4.40;99.90
17346;DHT22;8790;53.590;10.002;2022-12-07T09:18:05;4.50;99.90
17346;DHT22;8790;53.590;10.002;2022-12-07T09:20:37;4.40;99.90
17346;DHT22;8790;53.590;10.002;2022-12-07T09:23:09;4.50;99.90
17346;DHT22;8790;53.590;10.002;2022-12-07T09:25:41;4.40;99.90
17346;DHT22;8790;53.590;10.002;2022-12-07T09:28:14;4.50;99.90
17346;DHT22;8790;53.590;10.002;2022-12-07T09:30:46;4.50;99.90
17346;DHT22;8790;53.590;10.002;2022-12-07T09:33:18;4.50;99.90
17346;DHT22;8790;53.590;10.002;2022-12-07T09:35:51;4.60;99.90
17346;DHT22;8790;53.590;10.002;2022-12-07T09:38:23;4.50;99.90
17346;DHT22;8790;53.590;10.002;2022-12-07T09:40:57;4.60;99.90
17346;DHT22;8790;53.590;10.002;2022-12-07T09:43:30;4.60;99.90
17346;DHT22;8790;53.590;10.002;2022-12-07T09:46:02;4.60;99.90
17346;DHT22;8790;53.590;10.002;2022-12-07T09:48:36;4.60;99.90
17346;DHT22;8790;53.590;10.002;2022-12-07T09:51:14;4.70;99.90
17346;DHT22;8790;53.590;10.002;2022-12-07T09:53:48;4.70;99.90
17346;DHT22;8790;53.590;10.002;2022-12-07T09:56:22;4.60;99.90
17346;DHT22;8790;53.590;10.002;2022-12-07T09:58:59;4.70;99.90
17346;DHT22;8790;53.590;10.002;2022-12-07T10:01:33;4.70;99.90
17346;DHT22;8790;53.590;10.002;2022-12-07T10:04:10;4.70;99.90
17346;DHT22;8790;53.590;10.002;2022-12-07T10:06:43;4.70;99.90
17346;DHT22;8790;53.590;10.002;2022-12-07T10:09:17;4.70;99.90
17346;DHT22;8790;53.590;10.002;2022-12-07T10:12:03;4.70;99.90
17346;DHT22;8790;53.590;10.002;2022-12-07T10:14:39;4.80;99.90
17346;DHT22;8790;53.590;10.002;2022-12-07T10:17:33;4.80;99.90
17346;DHT22;8790;53.590;10.002;2022-12-07T10:20:19;4.80;99.90
17346;DHT22;8790;53.590;10.002;2022-12-07T10:23:02;4.80;99.90
17346;DHT22;8790;53.590;10.002;2022-12-07T10:25:36;4.80;99.90
17346;DHT22;8790;53.590;10.002;2022-12-07T10:28:15;4.80;99.90
17346;DHT22;8790;53.590;10.002;2022-12-07T10:30:56;4.90;99.90
17346;DHT22;8790;53.590;10.002;2022-12-07T10:33:32;4.80;99.90
17346;DHT22;8790;53.590;10.002;2022-12-07T10:36:19;4.90;99.90
17346;DHT22;8790;53.590;10.002;2022-12-07T10:38:53;4.90;99.90
17346;DHT22;8790;53.590;10.002;2022-12-07T10:41:30;4.90;99.90
17346;DHT22;8790;53.590;10.002;2022-12-07T10:44:01;4.90;99.90
17346;DHT22;8790;53.590;10.002;2022-12-07T10:47:03;4.90;99.90
17346;DHT22;8790;53.590;10.002;2022-12-07T10:50:07;4.90;99.90
17346;DHT22;8790;53.590;10.002;2022-12-07T10:52:58;5.00;99.90
17346;DHT22;8790;53.590;10.002;2022-12-07T10:55:42;5.00;99.90
17346;DHT22;8790;53.590;10.002;2022-12-07T10:58:31;5.00;99.90
17346;DHT22;8790;53.590;10.002;2022-12-07T11:01:14;5.00;99.90
17346;DHT22;8790;53.590;10.002;2022-12-07T11:04:11;5.00;99.90
17346;DHT22;8790;53.590;10.002;2022-12-07T11:06:51;5.00;99.90
17346;DHT22;8790;53.590;10.002;2022-12-07T11:09:42;5.00;99.90
17346;DHT22;8790;53.590;10.002;2022-12-07T11:12:25;5.00;99.90
17346;DHT22;8790;53.590;10.002;2022-12-07T11:15:03;5.00;99.90
17346;DHT22;8790;53.590;10.002;2022-12-07T11:17:42;5.10;99.90
17346;DHT22;8790;53.590;10.002;2022-12-07T11:20:29;5.10;99.90
17346;DHT22;8790;53.590;10.002;2022-12-07T11:23:16;5.10;99.90
17346;DHT22;8790;53.590;10.002;2022-12-07T11:25:54;5.00;99.90
17346;DHT22;8790;53.590;10.002;2022-12-07T11:28:43;5.00;99.90
17346;DHT22;8790;53.590;10.002;2022-12-07T11:31:26;5.10;99.90
17346;DHT22;8790;53.590;10.002;2022-12-07T11:34:06;5.10;99.90
17346;DHT22;8790;53.590;10.002;2022-12-07T11:36:43;5.10;99.90
17346;DHT22;8790;53.590;10.002;2022-12-07T11:39:21;5.10;99.90
17346;DHT22;8790;53.590;10.002;2022-12-07T11:42:00;5.10;99.90
17346;DHT22;8790;53.590;10.002;2022-12-07T11:44:36;5.00;99.90
17346;DHT22;8790;53.590;10.002;2022-12-07T11:47:16;5.00;99.90
17346;DHT22;8790;53.590;10.002;2022-12-07T11:49:54;5.10;99.90
17346;DHT22;8790;53.590;10.002;2022-12-07T11:52:33;5.10;99.90
17346;DHT22;8790;53.590;10.002;2022-12-07T11:55:24;5.10;99.90
17346;DHT22;8790;53.590;10.002;2022-12-07T11:58:03;5.10;99.90
17346;DHT22;8790;53.590;10.002;2022-12-07T12:00:36;5.20;99.90
17346;DHT22;8790;53.590;10.002;2022-12-07T12:03:11;5.20;99.90
17346;DHT22;8790;53.590;10.002;2022-12-07T12:05:44;5.20;99.90
17346;DHT22;8790;53.590;10.002;2022-12-07T12:08:21;5.20;99.90
17346;DHT22;8790;53.590;10.002;2022-12-07T12:11:01;5.20;99.90
17346;DHT22;8790;53.590;10.002;2022-12-07T12:13:55;5.20;99.90
17346;DHT22;8790;53.590;10.002;2022-12-07T12:16:58;5.30;99.90
17346;DHT22;8790;53.590;10.002;2022-12-07T12:19:34;5.30;99.90
17346;DHT22;8790;53.590;10.002;2022-12-07T12:22:13;5.20;99.90
17346;DHT22;8790;53.590;10.002;2022-12-07T12:24:51;5.30;99.90
17346;DHT22;8790;53.590;10.002;2022-12-07T12:27:27;5.30;99.90
17346;DHT22;8790;53.590;10.002;2022-12-07T12:30:02;5.30;99.90
17346;DHT22;8790;53.590;10.002;2022-12-07T12:32:39;5.30;99.90
17346;DHT22;8790;53.590;10.002;2022-12-07T12:35:28;5.30;99.90
17346;DHT22;8790;53.590;10.002;2022-12-07T12:38:21;5.30;99.90
17346;DHT22;8790;53.590;10.002;2022-12-07T12:40:57;5.30;99.90
17346;DHT22;8790;53.590;10.002;2022-12-07T12:43:50;5.30;99.90
17346;DHT22;8790;53.590;10.002;2022-12-07T12:46:49;5.30;99.90
17346;DHT22;8790;53.590;10.002;2022-12-07T12:49:42;5.40;99.90
17346;DHT22;8790;53.590;10.002;2022-12-07T12:52:52;5.30;99.90
17346;DHT22;8790;53.590;10.002;2022-12-07T12:58:33;5.30;99.90
17346;DHT22;8790;53.590;10.002;2022-12-07T13:07:54;5.30;99.90
17346;DHT22;8790;53.590;10.002;2022-12-07T13:10:45;5.30;99.90
17346;DHT22;8790;53.590;10.002;2022-12-07T13:13:34;5.20;99.90
17346;DHT22;8790;53.590;10.002;2022-12-07T13:16:38;5.30;99.90
17346;DHT22;8790;53.590;10.002;2022-12-07T13:22:51;5.30;99.90
17346;DHT22;8790;53.590;10.002;2022-12-07T13:25:33;5.30;99.90
17346;DHT22;8790;53.590;10.002;2022-12-07T13:28:14;5.30;99.90
17346;DHT22;8790;53.590;10.002;2022-12-07T13:30:58;5.30;99.90
17346;DHT22;8790;53.590;10.002;2022-12-07T13:33:34;5.30;99.90
17346;DHT22;8790;53.590;10.002;2022-12-07T13:36:15;5.20;99.90
17346;DHT22;8790;53.590;10.002;2022-12-07T13:38:54;5.20;99.90
17346;DHT22;8790;53.590;10.002;2022-12-07T13:41:26;5.30;99.90
17346;DHT22;8790;53.590;10.002;2022-12-07T13:44:05;5.30;99.90
17346;DHT22;8790;53.590;10.002;2022-12-07T13:46:47;5.20;99.90
17346;DHT22;8790;53.590;10.002;2022-12-07T13:49:23;5.20;99.90
17346;DHT22;8790;53.590;10.002;2022-12-07T13:52:14;5.20;99.90
17346;DHT22;8790;53.590;10.002;2022-12-07T13:54:48;5.10;99.90
17346;DHT22;8790;53.590;10.002;2022-12-07T13:57:20;5.10;99.90
17346;DHT22;8790;53.590;10.002;2022-12-07T13:59:52;5.10;99.90
17346;DHT22;8790;53.590;10.002;2022-12-07T14:02:27;5.10;99.90
17346;DHT22;8790;53.590;10.002;2022-12-07T14:05:08;5.10;99.90
17346;DHT22;8790;53.590;10.002;2022-12-07T14:07:49;5.00;99.90
17346;DHT22;8790;53.590;10.002;2022-12-07T14:10:26;5.00;99.90
17346;DHT22;8790;53.590;10.002;2022-12-07T14:13:00;5.00;99.90
17346;DHT22;8790;53.590;10.002;2022-12-07T14:15:33;5.10;99.90
17346;DHT22;8790;53.590;10.002;2022-12-07T14:18:26;5.00;99.90
17346;DHT22;8790;53.590;10.002;2022-12-07T14:21:05;5.00;99.90
17346;DHT22;8790;53.590;10.002;2022-12-07T14:23:38;4.90;99.90
17346;DHT22;8790;53.590;10.002;2022-12-07T14:26:13;5.00;99.90
17346;DHT22;8790;53.590;10.002;2022-12-07T14:28:45;5.00;99.90
17346;DHT22;8790;53.590;10.002;2022-12-07T14:31:18;5.00;99.90
17346;DHT22;8790;53.590;10.002;2022-12-07T14:33:53;4.90;99.90
17346;DHT22;8790;53.590;10.002;2022-12-07T14:36:25;4.90;99.90
17346;DHT22;8790;53.590;10.002;2022-12-07T14:38:57;4.90;99.90
17346;DHT22;8790;53.590;10.002;2022-12-07T14:41:29;4.90;99.90
17346;DHT22;8790;53.590;10.002;2022-12-07T14:44:24;4.90;99.90
17346;DHT22;8790;53.590;10.002;2022-12-07T14:46:56;4.80;99.90
17346;DHT22;8790;53.590;10.002;2022-12-07T14:49:29;4.90;99.90
17346;DHT22;8790;53.590;10.002;2022-12-07T14:52:00;4.90;99.90
17346;DHT22;8790;53.590;10.002;2022-12-07T14:54:32;4.90;99.90
17346;DHT22;8790;53.590;10.002;2022-12-07T14:57:04;4.80;99.90
17346;DHT22;8790;53.590;10.002;2022-12-07T14:59:36;4.90;99.90
17346;DHT22;8790;53.590;10.002;2022-12-07T15:02:09;4.90;99.90
17346;DHT22;8790;53.590;10.002;2022-12-07T15:04:43;4.80;99.90
17346;DHT22;8790;53.590;10.002;2022-12-07T15:07:19;4.80;99.90
17346;DHT22;8790;53.590;10.002;2022-12-07T15:09:51;4.80;99.90
17346;DHT22;8790;53.590;10.002;2022-12-07T15:12:23;4.70;99.90
17346;DHT22;8790;53.590;10.002;2022-12-07T15:14:55;4.80;99.90
17346;DHT22;8790;53.590;10.002;2022-12-07T15:17:27;4.70;99.90
17346;DHT22;8790;53.590;10.002;2022-12-07T15:20:00;4.70;99.90
17346;DHT22;8790;53.590;10.002;2022-12-07T15:22:32;4.70;99.90
17346;DHT22;8790;53.590;10.002;2022-12-07T15:25:04;4.70;99.90
17346;DHT22;8790;53.590;10.002;2022-12-07T15:27:36;4.60;99.90
17346;DHT22;8790;53.590;10.002;2022-12-07T15:30:08;4.50;99.90
17346;DHT22;8790;53.590;10.002;2022-12-07T15:32:40;4.60;99.90
17346;DHT22;8790;53.590;10.002;2022-12-07T15:35:13;4.60;99.90
17346;DHT22;8790;53.590;10.002;2022-12-07T15:37:45;4.60;99.90
17346;DHT22;8790;53.590;10.002;2022-12-07T15:40:18;4.50;99.90
17346;DHT22;8790;53.590;10.002;2022-12-07T15:42:49;4.50;99.90
17346;DHT22;8790;53.590;10.002;2022-12-07T15:45:21;4.50;99.90
17346;DHT22;8790;53.590;10.002;2022-12-07T15:47:52;4.50;99.90
17346;DHT22;8790;53.590;10.002;2022-12-07T15:50:26;4.50;99.90
17346;DHT22;8790;53.590;10.002;2022-12-07T15:52:58;4.50;99.90
17346;DHT22;8790;53.590;10.002;2022-12-07T15:55:30;4.40;99.90
17346;DHT22;8790;53.590;10.002;2022-12-07T15:58:01;4.40;99.90
17346;DHT22;8790;53.590;10.002;2022-12-07T16:00:33;4.40;99.90
17346;DHT22;8790;53.590;10.002;2022-12-07T16:03:05;4.40;99.90
17346;DHT22;8790;53.590;10.002;2022-12-07T16:05:38;4.30;99.90
17346;DHT22;8790;53.590;10.002;2022-12-07T16:08:10;4.30;99.90
17346;DHT22;8790;53.590;10.002;2022-12-07T16:10:42;4.30;99.90
17346;DHT22;8790;53.590;10.002;2022-12-07T16:13:14;4.30;99.90
17346;DHT22;8790;53.590;10.002;2022-12-07T16:15:46;4.30;99.90
17346;DHT22;8790;53.590;10.002;2022-12-07T16:18:17;4.20;99.90
17346;DHT22;8790;53.590;10.002;2022-12-07T16:20:50;4.20;99.90
17346;DHT22;8790;53.590;10.002;2022-12-07T16:23:22;4.20;99.90
17346;DHT22;8790;53.590;10.002;2022-12-07T16:25:54;4.20;99.90
17346;DHT22;8790;53.590;10.002;2022-12-07T16:28:28;4.20;99.90
17346;DHT22;8790;53.590;10.002;2022-12-07T16:31:04;4.20;99.90
17346;DHT22;8790;53.590;10.002;2022-12-07T16:33:38;4.10;99.90
17346;DHT22;8790;53.590;10.002;2022-12-07T16:36:12;4.20;99.90
17346;DHT22;8790;53.590;10.002;2022-12-07T16:38:46;4.20;99.90
17346;DHT22;8790;53.590;10.002;2022-12-07T16:41:18;4.10;99.90
17346;DHT22;8790;53.590;10.002;2022-12-07T16:43:50;4.20;99.90
17346;DHT22;8790;53.590;10.002;2022-12-07T16:46:22;4.10;99.90
17346;DHT22;8790;53.590;10.002;2022-12-07T16:48:53;4.10;99.90
17346;DHT22;8790;53.590;10.002;2022-12-07T16:51:26;4.10;99.90
17346;DHT22;8790;53.590;10.002;2022-12-07T16:53:58;4.00;99.90
17346;DHT22;8790;53.590;10.002;2022-12-07T16:56:30;4.00;99.90